Historyczne dane pomiarowe

Dodano dane terminowe – wersja testowa.

Dane z okresu 1951-2019

Wersja bazy: 1.34 [2019-03-16, lista zmian], aktualizacja planowana na 2019-04-15

Dane meteo z obszaru Polski uzyskane na podstawie danych udostępnionych przez Instytut Meteorologii i Gospodarki Wodnej – Państwowy Instytut Badawczy.

 

Wybierz Datę:    

       

TemperaturaWilgotnośćWiatrCiśnienieOpadyŚniegCzas trwania zjawisk
 Stacja t tx tn tng RH VA  wxwx mslp ppp RRR   cm mm wxwxwxwxwxwxwx
1983-08-14 13.4 17.4 10.8 10.2 85.3- 5.3 3.0---- 0.0------------
1983-08-13 14.5 20.0 12.0 11.0 88.8- 7.0 2.3---- 3.1------------
1983-08-12 18.2 22.6 15.0 13.0 93.0- 6.0 1.7---- 4.1------------
1983-08-11 17.9 20.5 15.0 13.5 94.8- 7.7 2.0---- 4.4------------
1983-08-10 17.4 23.4 11.6 9.0 94.3- 5.7 2.0---- 0.6------------
1983-08-09 18.0 24.0 12.4 10.2 91.0- 7.0 2.0---- 0.0------------
1983-08-08 16.6 22.0 12.2 11.0 94.3- 7.0 1.3---- 6.9------------
1983-08-07 17.6 22.2 14.0 14.0 93.5- 7.7 1.3---- 1.8------------
1983-08-06 14.0 20.5 7.0 8.0 94.0- 7.7 1.3---- 0.3------------
1983-08-05 13.1 15.4 10.4 11.0 87.5- 8.0 1.3---- 0.0------------
1983-08-04 13.3 22.0 12.0 12.0 92.3- 8.0 1.7---- 3.2------------
1983-08-03 20.9 26.0 16.4 16.4 87.8- 6.0 1.0---- 9.2------------
1983-08-02 20.4 30.0 11.6 9.0 84.0- 2.3 1.0---- 0.0------------
1983-08-01 16.2 25.0 8.0 9.0 87.8- 1.7 2.0---- 0.0------------
1983-07-31 17.7 22.0 13.0 11.0 84.8- 3.3 1.3---- 0.0------------
1983-07-30 16.7 20.6 11.4 9.0 85.3- 8.0 2.0---- 0.4------------
1983-07-29 19.6 23.5 13.0 12.0 78.3- 2.3 3.7---- 0.0------------
1983-07-28 20.8 26.5 14.5 14.0 79.0- 4.0 3.0---- 0.0------------
1983-07-27 22.3 28.6 14.0 11.8 86.5- 4.3 1.7---- 0.0------------
1983-07-26 19.0 25.0 15.0 14.0 93.0- 5.3 4.0---- 0.0------------
1983-07-25 14.0 19.0 10.3 9.5 95.5- 8.0 2.7---- 0.0------------
1983-07-24 15.0 18.2 13.0 13.2 94.5- 8.0 1.7---- 8.2------------
1983-07-23 15.4 19.8 12.0 12.4 86.3- 7.3 2.3---- 8.4------------
1983-07-22 13.2 16.0 10.8 9.5 84.3- 8.0 5.0---- 4.4------------
1983-07-21 13.0 17.0 9.0 7.0 86.0- 7.3 3.3---- 0.7------------
1983-07-20 16.9 25.0 13.0 13.0 96.0- 6.7 5.3---- 2.1------------
1983-07-19 21.8 30.0 11.0 10.0 77.3- 1.3 2.7---- 12.2------------
1983-07-18 19.4 28.0 12.0 12.5 82.3- 4.0 1.3---- 0.0------------
1983-07-17 20.0 25.6 9.0 14.0 86.8- 7.3 2.0---- 0.0------------
1983-07-16 17.8 27.4 9.0 8.2 92.8- 0.0 1.3---- 0.0------------
1983-07-15 18.8 23.5 14.6 14.5 92.8- 1.3 2.0---- 0.0------------
1983-07-14 16.3 19.6 14.5 12.5 97.3- 8.0 1.7---- 24.0------------
1983-07-13 17.3 22.0 14.0 12.4 93.5- 7.7 1.7---- 11.6------------
1983-07-12 16.3 20.5 14.2 12.4 95.8- 7.7 1.3---- 11.6------------
1983-07-11 18.4 23.0 15.0 13.0 97.8- 6.7 2.0---- 2.8------------
1983-07-10 20.0 25.5 13.0 11.0 91.0- 3.7 1.0---- 7.0------------
1983-07-09 19.3 26.8 10.6 9.0 84.5- 2.7 1.7---- 0.0------------
1983-07-08 18.7 26.0 8.5 6.0 77.0- 0.0 1.0---- 0.0------------
1983-07-07 19.3 26.2 10.5 10.0 75.8- 0.7 1.7---- 0.0------------
1983-07-06 18.9 26.0 11.0 10.0 84.3- 0.7 1.0---- 0.0------------
1983-07-05 18.8 26.5 9.6 9.0 83.5- 1.7 1.3---- 0.0------------
1983-07-04 17.6 25.0 9.0 7.5 80.5- 2.0 1.3---- 0.0------------
1983-07-03 18.1 24.0 13.0 15.5 89.5- 5.0 2.3---- 0.0------------
1983-07-02 19.0 24.4 9.8 12.5 94.3- 4.7 1.0---- 1.6------------
1983-07-01 17.6 26.0 9.5 8.2 92.8- 5.3 1.0---- 1.8------------
1983-06-30 14.5 21.4 7.0 6.5 86.0- 4.0 1.7---- 0.0------------
1983-06-29 15.5 19.0 12.2 12.5 90.3- 6.0 1.3---- 0.0------------
1983-06-28 17.1 22.0 15.5 14.0 95.0- 8.0 2.0---- 13.2------------
1983-06-27 19.7 26.6 11.0 10.2 82.3- 2.3 2.3---- 0.0------------
1983-06-26 18.2 21.0 15.0 13.2 83.5- 6.7 1.7---- 3.0------------
1983-06-25 19.7 26.0 12.2 9.0 70.5- 2.0 2.3---- 3.0------------
1983-06-24 15.3 25.0 5.4 3.0 77.8- 0.0 1.3---- 0.0------------
1983-06-23 13.1 19.4 4.3 2.8 71.3- 0.0 1.7---- 0.0------------
1983-06-22 15.1 21.0 10.6 9.5 64.0- 0.0 2.3---- 0.0------------
1983-06-21 19.2 25.0 13.4 12.5 74.8- 2.0 1.7---- 0.0------------
1983-06-20 18.4 22.4 16.0 15.0 95.8- 7.7 1.7---- 0.0------------
1983-06-19 17.4 22.2 11.0 12.0 93.8- 7.3 2.7---- 36.1------------
1983-06-18 12.2 13.5 11.0 10.0 97.0- 8.0 2.0---- 28.9------------
1983-06-17 12.5 14.5 9.5 9.0 88.5- 7.7 1.7---- 6.2------------
1983-06-16 12.0 16.2 10.5 11.0 98.0- 8.0 2.3---- 4.5------------
346.9 ms

 

Źródłem pochodzenia danych jest Instytut Meteorologii i Gospodarki Wodnej – Państwowy Instytut Badawczy. Dane Instytutu Meteorologii i Gospodarki Wodnej – Państwowego Instytutu Badawczego zostały przetworzone.

Dane źródłowe można odnaleźć na stronie https://dane.imgw.pl